Sedro Woolley, Washington
Current Conditions -  °F | °C
As of 1:53 AM on Saturday 25 Oct 2014 (Local Time) from KBLI Reporting Station
Light Rain Light Rain  
Wind Chill:   Ceiling: 5500
Heat Index:   Visibility: 9mi
Dew Point:   Wind: 8mph
Humidity: 86%   Direction: 20°NNE
Pressure: 29.71"   Gusts: NA
Location:  48.54°N, 122.19°W
Report Text: KBLI 250853Z AUTO 02007KT 9SM -RA OVC055 09/07 A2971 RMK AO2 SLP069 P0006 60015 T00940072 58045
Loading
Personal Weather Stations






























Interactive Weather Map
Tropical Storm Tracking
New forecast layout! Learn more

10-Day Weather Forecast

Advertisements
Track Severe Weather on mobile